Airfield :
LOGIN :

Register | Disclaimer

   EN    FR    IT 

 










Legend :    VFR   Marginal VFR   IFR   Intensive IFR   Very Intensive IFR
Visi :
Ceiling :
>= 8 km
>= 3000ft
5 to 8 km
1000 to 3000 ft
1500m to 5 km
500 to 1000 ft
800 to 1500m
200 to 500 ft
< 800m
< 200 ft
Symbols :   Thunderstorms  Fog  Heavy snow  Heavy precipitations  Wind > 20 kt
SIGMETs :     Misc.  Thunderstorms  Icing  Turbulence  Mountain Waves  Volcanic Ashes






- Airport Elevation : 236 ft
- IATA code : MMX


ESMS - Malmö Sturup

CURRENT METAR :
  • 170620Z 31021KT CAVOK 02/M02 Q1007

EXPIRED METARs :
  • 170550Z 32020G30KT 9999 -SN FEW002 SCT014 02/01 Q1006 RESHRA
  • 170520Z 31031G48KT 6000 RA FEW002 BKN033 01/M01 Q1005
  • 170450Z 30030G43KT 9999 FEW034 SCT046 07/03 Q1003
  • 170420Z 30029G39KT 9999 SCT015 BKN024 06/04 Q1002
  • 170350Z 28028G42KT 9999 BKN011 OVC022 07/05 Q1003
  • 170320Z 28028G39KT 9999 SCT011 BKN018 OVC024 07/05 Q1002

TAF TAF ESMS
Valid from the 17 at 06:00 until the 18 at 06:00 UTC


170503Z 1706/1806 31018KT 9999 BKN025
TEMPO 1706/1708 31023G40KT
TEMPO 1708/1715 32015G25KT
BECMG 1715/1718 32008KT



MET'MAP, your aeronautical weather chart ! - Copyright ORBIFLY December 2007 - Disclaimer

ORBIFLY MET'MAP TEAM :

Programming & Development : Alexandra Zaïnal
Concept & original design : Baudouin d'Aumeries
Assistance for programming : Marc-Olivier Méhu
Technical & hardware support : Manuel Goepfert

Contact : metmap@orbifly.com




SOURCES & CREDITS :

   NOAA